sensor_id;sensor_type;location;lat;lon;timestamp;pressure;altitude;pressure_sealevel;temperature;humidity
10127;BME280;13080;42.608;23.362;2023-02-17T00:02:16;151215.59;;;0.43;77.07
10127;BME280;13080;42.608;23.362;2023-02-17T00:04:43;151205.28;;;0.39;76.48
10127;BME280;13080;42.608;23.362;2023-02-17T00:07:11;151228.47;;;0.48;77.00
10127;BME280;13080;42.608;23.362;2023-02-17T00:09:38;151223.28;;;0.46;76.90
10127;BME280;13080;42.608;23.362;2023-02-17T00:12:06;151215.59;;;0.43;77.67
10127;BME280;13080;42.608;23.362;2023-02-17T00:14:33;151210.44;;;0.41;77.23
10127;BME280;13080;42.608;23.362;2023-02-17T00:17:00;151215.59;;;0.43;77.70
10127;BME280;13080;42.608;23.362;2023-02-17T00:19:26;151197.50;;;0.36;77.92
10127;BME280;13080;42.608;23.362;2023-02-17T00:21:54;151193.69;;;0.34;78.50
10127;BME280;13080;42.608;23.362;2023-02-17T00:24:24;151171.78;;;0.26;78.53
10127;BME280;13080;42.608;23.362;2023-02-17T00:26:50;151152.44;;;0.18;79.29
10127;BME280;13080;42.608;23.362;2023-02-17T00:29:17;151139.56;;;0.13;79.34
10127;BME280;13080;42.608;23.362;2023-02-17T00:31:44;151129.25;;;0.09;79.15
10127;BME280;13080;42.608;23.362;2023-02-17T00:34:12;151124.09;;;0.07;79.11
10127;BME280;13080;42.608;23.362;2023-02-17T00:36:39;151115.13;;;0.03;79.81
10127;BME280;13080;42.608;23.362;2023-02-17T00:39:06;151104.81;;;-0.01;79.58
10127;BME280;13080;42.608;23.362;2023-02-17T00:41:34;151097.09;;;-0.04;79.14
10127;BME280;13080;42.608;23.362;2023-02-17T00:44:00;151082.91;;;-0.10;80.56
10127;BME280;13080;42.608;23.362;2023-02-17T00:46:27;151077.75;;;-0.12;80.76
10127;BME280;13080;42.608;23.362;2023-02-17T00:48:54;151079.03;;;-0.11;80.45
10127;BME280;13080;42.608;23.362;2023-02-17T00:51:21;151116.38;;;0.04;79.96
10127;BME280;13080;42.608;23.362;2023-02-17T00:53:48;151109.97;;;0.01;79.48
10127;BME280;13080;42.608;23.362;2023-02-17T00:56:15;151109.97;;;0.01;79.98
10127;BME280;13080;42.608;23.362;2023-02-17T00:58:43;151107.41;;;0.00;80.04
10127;BME280;13080;42.608;23.362;2023-02-17T01:01:11;151108.69;;;0.01;79.91
10127;BME280;13080;42.608;23.362;2023-02-17T01:03:37;151115.13;;;0.03;79.79
10127;BME280;13080;42.608;23.362;2023-02-17T01:06:09;151126.69;;;0.08;79.91
10127;BME280;13080;42.608;23.362;2023-02-17T01:08:36;151126.69;;;0.08;79.50
10127;BME280;13080;42.608;23.362;2023-02-17T01:11:02;151143.44;;;0.14;79.71
10127;BME280;13080;42.608;23.362;2023-02-17T01:13:29;151144.72;;;0.15;78.98
10127;BME280;13080;42.608;23.362;2023-02-17T01:15:57;151161.47;;;0.22;78.75
10127;BME280;13080;42.608;23.362;2023-02-17T01:18:24;151148.59;;;0.16;79.20
10127;BME280;13080;42.608;23.362;2023-02-17T01:20:51;151140.84;;;0.13;79.22
10127;BME280;13080;42.608;23.362;2023-02-17T01:23:18;151133.13;;;0.10;79.39
10127;BME280;13080;42.608;23.362;2023-02-17T01:25:45;151130.59;;;0.09;79.56
10127;BME280;13080;42.608;23.362;2023-02-17T01:28:15;151119.00;;;0.05;79.38
10127;BME280;13080;42.608;23.362;2023-02-17T01:30:42;151111.25;;;0.02;80.05
10127;BME280;13080;42.608;23.362;2023-02-17T01:33:10;151111.25;;;0.02;79.77
10127;BME280;13080;42.608;23.362;2023-02-17T01:35:37;151107.41;;;0.00;79.71
10127;BME280;13080;42.608;23.362;2023-02-17T01:38:03;151111.25;;;0.02;80.27
10127;BME280;13080;42.608;23.362;2023-02-17T01:40:30;151100.94;;;-0.03;80.49
10127;BME280;13080;42.608;23.362;2023-02-17T01:42:57;151094.50;;;-0.05;80.38
10127;BME280;13080;42.608;23.362;2023-02-17T01:45:37;151086.78;;;-0.08;80.45
10127;BME280;13080;42.608;23.362;2023-02-17T01:48:07;151081.63;;;-0.10;80.61
10127;BME280;13080;42.608;23.362;2023-02-17T01:50:42;151089.34;;;-0.07;80.25
10127;BME280;13080;42.608;23.362;2023-02-17T01:53:10;151091.94;;;-0.06;80.01
10127;BME280;13080;42.608;23.362;2023-02-17T01:55:40;151111.25;;;0.02;80.26
10127;BME280;13080;42.608;23.362;2023-02-17T01:58:10;151119.00;;;0.05;79.80
10127;BME280;13080;42.608;23.362;2023-02-17T02:00:39;151122.81;;;0.06;79.22
10127;BME280;13080;42.608;23.362;2023-02-17T02:03:07;151155.03;;;0.19;79.21
10127;BME280;13080;42.608;23.362;2023-02-17T02:05:35;151147.31;;;0.16;79.02
10127;BME280;13080;42.608;23.362;2023-02-17T02:08:04;151165.34;;;0.23;78.47
10127;BME280;13080;42.608;23.362;2023-02-17T02:10:31;151191.06;;;0.33;77.96
10127;BME280;13080;42.608;23.362;2023-02-17T02:12:58;151202.66;;;0.38;77.75
10127;BME280;13080;42.608;23.362;2023-02-17T02:15:30;151153.75;;;0.18;77.80
10127;BME280;13080;42.608;23.362;2023-02-17T02:18:10;151115.13;;;0.03;78.70
10127;BME280;13080;42.608;23.362;2023-02-17T02:21:14;151124.09;;;0.07;79.52
10127;BME280;13080;42.608;23.362;2023-02-17T02:23:54;151075.19;;;-0.13;79.42
10127;BME280;13080;42.608;23.362;2023-02-17T02:26:44;151059.72;;;-0.19;78.82
10127;BME280;13080;42.608;23.362;2023-02-17T02:29:37;151063.63;;;-0.17;79.10
10127;BME280;13080;42.608;23.362;2023-02-17T02:35:20;151035.28;;;-0.29;80.70
10127;BME280;13080;42.608;23.362;2023-02-17T02:37:52;151054.56;;;-0.21;79.76
10127;BME280;13080;42.608;23.362;2023-02-17T02:40:25;151041.72;;;-0.26;80.49
10127;BME280;13080;42.608;23.362;2023-02-17T02:42:55;151015.94;;;-0.36;81.55
10127;BME280;13080;42.608;23.362;2023-02-17T02:45:22;151003.09;;;-0.42;81.87
10127;BME280;13080;42.608;23.362;2023-02-17T02:47:51;151000.53;;;-0.43;81.91
10127;BME280;13080;42.608;23.362;2023-02-17T02:50:22;150991.50;;;-0.46;81.42
10127;BME280;13080;42.608;23.362;2023-02-17T02:52:59;150968.34;;;-0.55;82.92
10127;BME280;13080;42.608;23.362;2023-02-17T02:55:42;150986.34;;;-0.48;82.31
10127;BME280;13080;42.608;23.362;2023-02-17T02:58:17;150972.22;;;-0.54;83.09
10127;BME280;13080;42.608;23.362;2023-02-17T03:00:51;150973.50;;;-0.53;83.77
10127;BME280;13080;42.608;23.362;2023-02-17T03:03:25;150961.91;;;-0.58;83.61
10127;BME280;13080;42.608;23.362;2023-02-17T03:05:59;150959.31;;;-0.59;83.95
10127;BME280;13080;42.608;23.362;2023-02-17T03:08:32;151004.38;;;-0.41;82.61
10127;BME280;13080;42.608;23.362;2023-02-17T03:11:01;150990.22;;;-0.47;81.77
10127;BME280;13080;42.608;23.362;2023-02-17T03:13:28;150983.81;;;-0.49;81.81
10127;BME280;13080;42.608;23.362;2023-02-17T03:15:55;150976.03;;;-0.52;82.95
10127;BME280;13080;42.608;23.362;2023-02-17T03:18:22;150977.31;;;-0.52;83.22
10127;BME280;13080;42.608;23.362;2023-02-17T03:20:52;150973.50;;;-0.53;82.82
10127;BME280;13080;42.608;23.362;2023-02-17T03:23:21;150970.91;;;-0.54;83.04
10127;BME280;13080;42.608;23.362;2023-02-17T03:25:48;150974.78;;;-0.53;83.76
10127;BME280;13080;42.608;23.362;2023-02-17T03:28:14;150978.66;;;-0.51;82.84
10127;BME280;13080;42.608;23.362;2023-02-17T03:30:41;150990.22;;;-0.47;82.78
10127;BME280;13080;42.608;23.362;2023-02-17T03:33:08;151008.25;;;-0.39;82.45
10127;BME280;13080;42.608;23.362;2023-02-17T03:35:34;151041.72;;;-0.26;81.08
10127;BME280;13080;42.608;23.362;2023-02-17T03:38:01;151044.28;;;-0.25;81.27
10127;BME280;13080;42.608;23.362;2023-02-17T03:40:29;151035.28;;;-0.29;81.28
10127;BME280;13080;42.608;23.362;2023-02-17T03:42:56;151028.84;;;-0.31;81.66
10127;BME280;13080;42.608;23.362;2023-02-17T03:45:23;151031.41;;;-0.30;81.88
10127;BME280;13080;42.608;23.362;2023-02-17T03:47:50;151054.56;;;-0.21;81.84
10127;BME280;13080;42.608;23.362;2023-02-17T03:50:17;151062.34;;;-0.18;81.85
10127;BME280;13080;42.608;23.362;2023-02-17T03:52:44;151057.19;;;-0.20;81.09
10127;BME280;13080;42.608;23.362;2023-02-17T03:55:11;151080.34;;;-0.11;80.97
10127;BME280;13080;42.608;23.362;2023-02-17T03:57:39;151109.97;;;0.01;80.09
10127;BME280;13080;42.608;23.362;2023-02-17T04:00:07;151100.94;;;-0.03;80.15
10127;BME280;13080;42.608;23.362;2023-02-17T04:02:35;151085.50;;;-0.09;80.50
10127;BME280;13080;42.608;23.362;2023-02-17T04:05:02;151055.84;;;-0.21;80.32
10127;BME280;13080;42.608;23.362;2023-02-17T04:07:28;151066.16;;;-0.16;80.65
10127;BME280;13080;42.608;23.362;2023-02-17T04:09:55;151086.78;;;-0.08;79.66
10127;BME280;13080;42.608;23.362;2023-02-17T04:12:22;151076.47;;;-0.12;80.47
10127;BME280;13080;42.608;23.362;2023-02-17T04:14:50;151062.34;;;-0.18;80.34
10127;BME280;13080;42.608;23.362;2023-02-17T04:17:17;151058.47;;;-0.19;80.31
10127;BME280;13080;42.608;23.362;2023-02-17T04:19:43;151053.31;;;-0.22;81.34
10127;BME280;13080;42.608;23.362;2023-02-17T04:22:10;151039.13;;;-0.27;80.86
10127;BME280;13080;42.608;23.362;2023-02-17T04:24:37;151043.00;;;-0.26;80.61
10127;BME280;13080;42.608;23.362;2023-02-17T04:27:04;151059.72;;;-0.19;82.16
10127;BME280;13080;42.608;23.362;2023-02-17T04:29:31;151058.47;;;-0.19;81.76
10127;BME280;13080;42.608;23.362;2023-02-17T04:32:00;151046.88;;;-0.24;80.78
10127;BME280;13080;42.608;23.362;2023-02-17T04:34:27;151010.78;;;-0.38;81.51
10127;BME280;13080;42.608;23.362;2023-02-17T04:36:53;151014.69;;;-0.37;81.10
10127;BME280;13080;42.608;23.362;2023-02-17T04:39:20;151000.53;;;-0.43;81.75
10127;BME280;13080;42.608;23.362;2023-02-17T04:41:47;150992.78;;;-0.46;82.14
10127;BME280;13080;42.608;23.362;2023-02-17T04:44:14;150999.22;;;-0.43;82.35
10127;BME280;13080;42.608;23.362;2023-02-17T04:46:40;151004.38;;;-0.41;82.36
10127;BME280;13080;42.608;23.362;2023-02-17T04:49:09;150988.91;;;-0.47;81.98
10127;BME280;13080;42.608;23.362;2023-02-17T04:51:35;150985.06;;;-0.49;82.37
10127;BME280;13080;42.608;23.362;2023-02-17T04:54:02;150986.34;;;-0.48;81.97
10127;BME280;13080;42.608;23.362;2023-02-17T04:56:29;150983.81;;;-0.49;83.36
10127;BME280;13080;42.608;23.362;2023-02-17T04:58:56;150968.34;;;-0.55;83.35
10127;BME280;13080;42.608;23.362;2023-02-17T05:01:22;150956.75;;;-0.60;84.21
10127;BME280;13080;42.608;23.362;2023-02-17T05:03:49;150970.91;;;-0.54;82.71
10127;BME280;13080;42.608;23.362;2023-02-17T05:06:17;150959.31;;;-0.59;83.15
10127;BME280;13080;42.608;23.362;2023-02-17T05:08:44;150954.16;;;-0.61;83.07
10127;BME280;13080;42.608;23.362;2023-02-17T05:11:12;150950.34;;;-0.63;83.80
10127;BME280;13080;42.608;23.362;2023-02-17T05:13:39;150940.03;;;-0.67;84.58
10127;BME280;13080;42.608;23.362;2023-02-17T05:16:06;150934.88;;;-0.69;84.67
10127;BME280;13080;42.608;23.362;2023-02-17T05:18:33;150920.69;;;-0.74;84.30
10127;BME280;13080;42.608;23.362;2023-02-17T05:21:00;150919.41;;;-0.75;85.35
10127;BME280;13080;42.608;23.362;2023-02-17T05:23:28;150913.00;;;-0.77;85.40
10127;BME280;13080;42.608;23.362;2023-02-17T05:25:55;150906.56;;;-0.80;85.01
10127;BME280;13080;42.608;23.362;2023-02-17T05:28:22;150914.28;;;-0.77;85.28
10127;BME280;13080;42.608;23.362;2023-02-17T05:30:48;150920.69;;;-0.74;85.50
10127;BME280;13080;42.608;23.362;2023-02-17T05:33:15;150936.16;;;-0.68;84.95
10127;BME280;13080;42.608;23.362;2023-02-17T05:35:42;150946.47;;;-0.64;84.44
10127;BME280;13080;42.608;23.362;2023-02-17T05:38:09;150945.19;;;-0.65;84.58
10127;BME280;13080;42.608;23.362;2023-02-17T05:40:37;150951.59;;;-0.62;84.69
10127;BME280;13080;42.608;23.362;2023-02-17T05:43:04;150967.06;;;-0.56;85.30
10127;BME280;13080;42.608;23.362;2023-02-17T05:45:31;150972.22;;;-0.54;84.43
10127;BME280;13080;42.608;23.362;2023-02-17T05:47:57;150997.94;;;-0.44;84.72
10127;BME280;13080;42.608;23.362;2023-02-17T05:50:24;150996.66;;;-0.44;84.02
10127;BME280;13080;42.608;23.362;2023-02-17T05:52:51;151004.38;;;-0.41;84.43
10127;BME280;13080;42.608;23.362;2023-02-17T05:55:17;151035.28;;;-0.29;83.78
10127;BME280;13080;42.608;23.362;2023-02-17T05:57:45;151054.56;;;-0.21;83.20
10127;BME280;13080;42.608;23.362;2023-02-17T06:00:13;151077.75;;;-0.12;82.60
10127;BME280;13080;42.608;23.362;2023-02-17T06:02:40;151104.81;;;-0.01;82.59
10127;BME280;13080;42.608;23.362;2023-02-17T06:05:07;151138.28;;;0.12;81.25
10127;BME280;13080;42.608;23.362;2023-02-17T06:07:35;151146.00;;;0.15;81.85
10127;BME280;13080;42.608;23.362;2023-02-17T06:10:02;151134.41;;;0.11;81.84
10127;BME280;13080;42.608;23.362;2023-02-17T06:12:29;151138.28;;;0.12;82.24
10127;BME280;13080;42.608;23.362;2023-02-17T06:14:58;151156.31;;;0.19;81.74
10127;BME280;13080;42.608;23.362;2023-02-17T06:17:25;151169.19;;;0.25;82.21
10127;BME280;13080;42.608;23.362;2023-02-17T06:19:52;151175.66;;;0.27;81.51
10127;BME280;13080;42.608;23.362;2023-02-17T06:22:19;151219.41;;;0.45;79.30
10127;BME280;13080;42.608;23.362;2023-02-17T06:24:46;151254.25;;;0.58;77.25
10127;BME280;13080;42.608;23.362;2023-02-17T06:27:12;151334.13;;;0.90;73.85
10127;BME280;13080;42.608;23.362;2023-02-17T06:29:39;151381.78;;;1.09;73.50
10127;BME280;13080;42.608;23.362;2023-02-17T06:32:07;151505.56;;;1.58;69.36
10127;BME280;13080;42.608;23.362;2023-02-17T06:34:34;151611.31;;;2.00;66.85
10127;BME280;13080;42.608;23.362;2023-02-17T06:37:01;151643.59;;;2.13;67.11
10127;BME280;13080;42.608;23.362;2023-02-17T06:39:27;151662.94;;;2.21;68.16
10127;BME280;13080;42.608;23.362;2023-02-17T06:41:54;151673.25;;;2.25;69.06
10127;BME280;13080;42.608;23.362;2023-02-17T06:44:21;151702.91;;;2.37;68.26
10127;BME280;13080;42.608;23.362;2023-02-17T06:46:48;151749.38;;;2.55;67.65
10127;BME280;13080;42.608;23.362;2023-02-17T06:49:16;151795.88;;;2.74;67.82
10127;BME280;13080;42.608;23.362;2023-02-17T06:51:43;151826.81;;;2.86;67.63
10127;BME280;13080;42.608;23.362;2023-02-17T06:54:09;151821.66;;;2.84;68.34
10127;BME280;13080;42.608;23.362;2023-02-17T06:56:36;151797.16;;;2.74;68.86
10127;BME280;13080;42.608;23.362;2023-02-17T06:59:03;151810.03;;;2.79;67.64
10127;BME280;13080;42.608;23.362;2023-02-17T07:01:30;151829.38;;;2.87;68.27
10127;BME280;13080;42.608;23.362;2023-02-17T07:03:57;151804.88;;;2.77;69.95
10127;BME280;13080;42.608;23.362;2023-02-17T07:06:25;151794.53;;;2.73;70.51
10127;BME280;13080;42.608;23.362;2023-02-17T07:08:52;151759.69;;;2.59;70.79
10127;BME280;13080;42.608;23.362;2023-02-17T07:11:19;151726.13;;;2.46;71.99
10127;BME280;13080;42.608;23.362;2023-02-17T07:13:46;151722.31;;;2.44;71.92
10127;BME280;13080;42.608;23.362;2023-02-17T07:16:13;151709.38;;;2.39;71.94
10127;BME280;13080;42.608;23.362;2023-02-17T07:18:40;151705.53;;;2.38;71.55
10127;BME280;13080;42.608;23.362;2023-02-17T07:21:08;151717.13;;;2.42;70.89
10127;BME280;13080;42.608;23.362;2023-02-17T07:23:36;151724.84;;;2.45;71.07
10127;BME280;13080;42.608;23.362;2023-02-17T07:26:05;151741.63;;;2.52;70.99
10127;BME280;13080;42.608;23.362;2023-02-17T07:28:32;151757.13;;;2.58;69.90
10127;BME280;13080;42.608;23.362;2023-02-17T07:31:04;151750.69;;;2.56;70.10
10127;BME280;13080;42.608;23.362;2023-02-17T07:33:30;151790.69;;;2.72;69.50
10127;BME280;13080;42.608;23.362;2023-02-17T07:35:57;151842.31;;;2.92;67.48
10127;BME280;13080;42.608;23.362;2023-02-17T07:38:24;151905.56;;;3.17;67.13
10127;BME280;13080;42.608;23.362;2023-02-17T07:40:52;151950.78;;;3.35;67.79
10127;BME280;13080;42.608;23.362;2023-02-17T07:43:19;151992.09;;;3.51;66.90
10127;BME280;13080;42.608;23.362;2023-02-17T07:45:45;152014.03;;;3.60;67.48
10127;BME280;13080;42.608;23.362;2023-02-17T07:48:12;152030.84;;;3.67;67.59
10127;BME280;13080;42.608;23.362;2023-02-17T07:50:39;152039.91;;;3.70;67.94
10127;BME280;13080;42.608;23.362;2023-02-17T07:53:05;152061.88;;;3.79;67.76
10127;BME280;13080;42.608;23.362;2023-02-17T07:55:32;152092.84;;;3.91;67.43
10127;BME280;13080;42.608;23.362;2023-02-17T07:58:00;152104.47;;;3.96;70.50
10127;BME280;13080;42.608;23.362;2023-02-17T08:00:27;152100.59;;;3.94;68.34
10127;BME280;13080;42.608;23.362;2023-02-17T08:02:54;152105.75;;;3.96;68.02
10127;BME280;13080;42.608;23.362;2023-02-17T08:05:20;152125.16;;;4.04;68.36
10127;BME280;13080;42.608;23.362;2023-02-17T08:07:47;152144.53;;;4.12;67.17
10127;BME280;13080;42.608;23.362;2023-02-17T08:10:36;152183.31;;;4.27;66.39
10127;BME280;13080;42.608;23.362;2023-02-17T08:13:36;152211.72;;;4.38;65.63
10127;BME280;13080;42.608;23.362;2023-02-17T08:16:03;152256.97;;;4.56;65.54
10127;BME280;13080;42.608;23.362;2023-02-17T08:18:30;152271.22;;;4.62;65.24
10127;BME280;13080;42.608;23.362;2023-02-17T08:20:56;152280.25;;;4.66;64.96
10127;BME280;13080;42.608;23.362;2023-02-17T08:23:23;152307.41;;;4.76;65.07
10127;BME280;13080;42.608;23.362;2023-02-17T08:25:50;152309.97;;;4.77;65.31
10127;BME280;13080;42.608;23.362;2023-02-17T08:28:16;152329.38;;;4.85;63.73
10127;BME280;13080;42.608;23.362;2023-02-17T08:30:46;152355.22;;;4.95;62.47
10127;BME280;13080;42.608;23.362;2023-02-17T08:33:13;152386.28;;;5.08;60.29
10127;BME280;13080;42.608;23.362;2023-02-17T08:35:42;152430.25;;;5.25;59.59
10127;BME280;13080;42.608;23.362;2023-02-17T08:38:09;152493.63;;;5.50;58.29
10127;BME280;13080;42.608;23.362;2023-02-17T08:40:36;152511.72;;;5.57;57.39
10127;BME280;13080;42.608;23.362;2023-02-17T08:43:06;152542.81;;;5.70;57.26
10127;BME280;13080;42.608;23.362;2023-02-17T08:45:33;152598.41;;;5.92;57.08
10127;BME280;13080;42.608;23.362;2023-02-17T08:48:02;152617.91;;;5.99;57.42
10127;BME280;13080;42.608;23.362;2023-02-17T08:50:30;152632.13;;;6.05;56.95
10127;BME280;13080;42.608;23.362;2023-02-17T08:52:57;152642.47;;;6.09;56.84
10127;BME280;13080;42.608;23.362;2023-02-17T08:55:24;152636.00;;;6.07;56.99
10127;BME280;13080;42.608;23.362;2023-02-17T08:57:51;152685.22;;;6.26;56.10
10127;BME280;13080;42.608;23.362;2023-02-17T09:00:18;152743.44;;;6.49;54.98
10127;BME280;13080;42.608;23.362;2023-02-17T09:02:45;152757.72;;;6.55;54.41
10127;BME280;13080;42.608;23.362;2023-02-17T09:05:13;152783.59;;;6.65;54.72
10127;BME280;13080;42.608;23.362;2023-02-17T09:07:40;152806.88;;;6.74;54.78
10127;BME280;13080;42.608;23.362;2023-02-17T09:10:11;152840.56;;;6.87;54.94
10127;BME280;13080;42.608;23.362;2023-02-17T09:12:38;152875.53;;;7.01;53.12
10127;BME280;13080;42.608;23.362;2023-02-17T09:15:05;152897.53;;;7.10;53.10
10127;BME280;13080;42.608;23.362;2023-02-17T09:17:37;152929.94;;;7.23;52.20
10127;BME280;13080;42.608;23.362;2023-02-17T09:20:06;152922.19;;;7.20;52.30
10127;BME280;13080;42.608;23.362;2023-02-17T09:22:35;152931.22;;;7.23;52.46
10127;BME280;13080;42.608;23.362;2023-02-17T09:25:02;152946.78;;;7.29;52.34
10127;BME280;13080;42.608;23.362;2023-02-17T09:27:29;152985.66;;;7.45;51.99
10127;BME280;13080;42.608;23.362;2023-02-17T09:29:56;153037.47;;;7.65;51.70
10127;BME280;13080;42.608;23.362;2023-02-17T09:32:23;153068.56;;;7.78;51.51
10127;BME280;13080;42.608;23.362;2023-02-17T09:34:50;153077.66;;;7.81;50.99
10127;BME280;13080;42.608;23.362;2023-02-17T09:37:17;153113.94;;;7.96;50.43
10127;BME280;13080;42.608;23.362;2023-02-17T09:39:47;153113.94;;;7.96;50.73
10127;BME280;13080;42.608;23.362;2023-02-17T09:42:17;153137.25;;;8.05;50.07
10127;BME280;13080;42.608;23.362;2023-02-17T09:44:47;153142.44;;;8.07;50.49
10127;BME280;13080;42.608;23.362;2023-02-17T09:47:17;153121.72;;;7.99;51.04
10127;BME280;13080;42.608;23.362;2023-02-17T09:49:49;153130.78;;;8.02;51.17
10127;BME280;13080;42.608;23.362;2023-02-17T09:52:19;153119.13;;;7.98;50.02
10127;BME280;13080;42.608;23.362;2023-02-17T09:54:59;153150.25;;;8.10;50.96
10127;BME280;13080;42.608;23.362;2023-02-17T09:57:31;153187.81;;;8.25;49.58
10127;BME280;13080;42.608;23.362;2023-02-17T10:00:05;153208.56;;;8.33;49.39
10127;BME280;13080;42.608;23.362;2023-02-17T10:02:35;153187.81;;;8.25;50.42
10127;BME280;13080;42.608;23.362;2023-02-17T10:05:07;153212.47;;;8.35;50.29
10127;BME280;13080;42.608;23.362;2023-02-17T10:07:39;153230.66;;;8.42;50.50
10127;BME280;13080;42.608;23.362;2023-02-17T10:10:09;153254.00;;;8.51;50.50
10127;BME280;13080;42.608;23.362;2023-02-17T10:12:39;153254.00;;;8.51;49.76
10127;BME280;13080;42.608;23.362;2023-02-17T10:15:09;153290.31;;;8.65;49.48
10127;BME280;13080;42.608;23.362;2023-02-17T10:17:39;153338.31;;;8.84;47.95
10127;BME280;13080;42.608;23.362;2023-02-17T10:20:11;153390.19;;;9.05;42.08
10127;BME280;13080;42.608;23.362;2023-02-17T10:22:42;153466.78;;;9.35;43.32
10127;BME280;13080;42.608;23.362;2023-02-17T10:25:15;153544.59;;;9.66;41.06
10127;BME280;13080;42.608;23.362;2023-02-17T10:27:47;153604.31;;;9.89;36.30
10127;BME280;13080;42.608;23.362;2023-02-17T10:30:28;153608.19;;;9.91;37.13
10127;BME280;13080;42.608;23.362;2023-02-17T10:32:59;153619.91;;;9.95;37.18
10127;BME280;13080;42.608;23.362;2023-02-17T10:35:39;153641.94;;;10.04;37.22
10127;BME280;13080;42.608;23.362;2023-02-17T10:38:14;153662.72;;;10.12;34.42
10127;BME280;13080;42.608;23.362;2023-02-17T10:40:43;153662.72;;;10.12;33.73
10127;BME280;13080;42.608;23.362;2023-02-17T10:43:11;153658.81;;;10.11;34.97
10127;BME280;13080;42.608;23.362;2023-02-17T10:45:42;153675.69;;;10.17;35.35
10127;BME280;13080;42.608;23.362;2023-02-17T10:48:15;153687.38;;;10.22;35.83
10127;BME280;13080;42.608;23.362;2023-02-17T10:50:45;153721.19;;;10.35;35.38
10127;BME280;13080;42.608;23.362;2023-02-17T10:53:13;153719.91;;;10.35;35.34
10127;BME280;13080;42.608;23.362;2023-02-17T10:55:52;153738.06;;;10.42;36.25
10127;BME280;13080;42.608;23.362;2023-02-17T10:58:24;153742.00;;;10.44;35.79
10127;BME280;13080;42.608;23.362;2023-02-17T11:00:54;153725.09;;;10.37;35.57
10127;BME280;13080;42.608;23.362;2023-02-17T11:03:24;153726.41;;;10.37;35.20
10127;BME280;13080;42.608;23.362;2023-02-17T11:05:53;153757.59;;;10.50;35.70
10127;BME280;13080;42.608;23.362;2023-02-17T11:08:27;153766.66;;;10.53;36.36
10127;BME280;13080;42.608;23.362;2023-02-17T11:11:02;153788.72;;;10.62;36.04
10127;BME280;13080;42.608;23.362;2023-02-17T11:13:34;153793.94;;;10.64;35.83
10127;BME280;13080;42.608;23.362;2023-02-17T11:16:02;153778.34;;;10.58;34.13
10127;BME280;13080;42.608;23.362;2023-02-17T11:18:31;153780.97;;;10.59;35.71
10127;BME280;13080;42.608;23.362;2023-02-17T11:21:01;153790.03;;;10.63;34.93
10127;BME280;13080;42.608;23.362;2023-02-17T11:23:28;153803.06;;;10.68;35.53
10127;BME280;13080;42.608;23.362;2023-02-17T11:25:58;153753.69;;;10.48;35.56
10127;BME280;13080;42.608;23.362;2023-02-17T11:28:27;153777.03;;;10.57;35.78
10127;BME280;13080;42.608;23.362;2023-02-17T11:30:56;153795.22;;;10.65;35.55
10127;BME280;13080;42.608;23.362;2023-02-17T11:33:29;153793.94;;;10.64;35.43
10127;BME280;13080;42.608;23.362;2023-02-17T11:35:56;153810.81;;;10.71;35.60
10127;BME280;13080;42.608;23.362;2023-02-17T11:38:25;153819.94;;;10.74;36.51
10127;BME280;13080;42.608;23.362;2023-02-17T11:40:55;153829.00;;;10.78;35.50
10127;BME280;13080;42.608;23.362;2023-02-17T11:43:22;153823.78;;;10.76;35.98
10127;BME280;13080;42.608;23.362;2023-02-17T11:45:57;153853.72;;;10.88;35.28
10127;BME280;13080;42.608;23.362;2023-02-17T11:48:50;153858.91;;;10.90;37.19
10127;BME280;13080;42.608;23.362;2023-02-17T11:51:26;153891.34;;;11.02;35.66
10127;BME280;13080;42.608;23.362;2023-02-17T11:54:03;153860.19;;;10.90;36.02
10127;BME280;13080;42.608;23.362;2023-02-17T11:56:34;153879.66;;;10.98;35.38
10127;BME280;13080;42.608;23.362;2023-02-17T11:59:19;153871.88;;;10.95;35.90
10127;BME280;13080;42.608;23.362;2023-02-17T12:02:04;153840.69;;;10.82;36.20
10127;BME280;13080;42.608;23.362;2023-02-17T12:04:41;153852.38;;;10.87;35.88
10127;BME280;13080;42.608;23.362;2023-02-17T12:07:26;153858.91;;;10.90;36.80
10127;BME280;13080;42.608;23.362;2023-02-17T12:10:00;153858.91;;;10.90;36.63
10127;BME280;13080;42.608;23.362;2023-02-17T12:12:35;153869.25;;;10.94;36.52
10127;BME280;13080;42.608;23.362;2023-02-17T12:15:26;153860.19;;;10.90;36.88
10127;BME280;13080;42.608;23.362;2023-02-17T12:18:07;153895.28;;;11.04;36.49
10127;BME280;13080;42.608;23.362;2023-02-17T12:20:44;153882.28;;;10.99;37.33
10127;BME280;13080;42.608;23.362;2023-02-17T12:23:28;153896.56;;;11.05;37.02
10127;BME280;13080;42.608;23.362;2023-02-17T12:25:58;153925.13;;;11.16;37.20
10127;BME280;13080;42.608;23.362;2023-02-17T12:28:40;153893.97;;;11.03;37.80
10127;BME280;13080;42.608;23.362;2023-02-17T12:31:18;153897.84;;;11.05;37.20
10127;BME280;13080;42.608;23.362;2023-02-17T12:33:56;153900.47;;;11.06;38.17
10127;BME280;13080;42.608;23.362;2023-02-17T12:36:28;153916.06;;;11.12;37.72
10127;BME280;13080;42.608;23.362;2023-02-17T12:38:58;153897.84;;;11.05;38.47
10127;BME280;13080;42.608;23.362;2023-02-17T12:41:31;153909.53;;;11.10;37.73
10127;BME280;13080;42.608;23.362;2023-02-17T12:44:03;153903.03;;;11.07;37.39
10127;BME280;13080;42.608;23.362;2023-02-17T12:46:36;153909.53;;;11.10;37.64
10127;BME280;13080;42.608;23.362;2023-02-17T12:49:08;153891.34;;;11.02;37.75
10127;BME280;13080;42.608;23.362;2023-02-17T12:51:40;153890.06;;;11.02;37.66
10127;BME280;13080;42.608;23.362;2023-02-17T12:54:11;153892.63;;;11.03;37.94
10127;BME280;13080;42.608;23.362;2023-02-17T12:56:55;153892.63;;;11.03;38.00
10127;BME280;13080;42.608;23.362;2023-02-17T12:59:26;153935.53;;;11.20;37.95
10127;BME280;13080;42.608;23.362;2023-02-17T13:02:00;153939.47;;;11.21;38.08